createdAt,value
2022-12-07T00:01:32.419Z,8.90
2022-12-07T00:04:07.424Z,8.10
2022-12-07T00:06:35.658Z,8.60
2022-12-07T00:09:03.138Z,7.88
2022-12-07T00:11:30.291Z,9.05
2022-12-07T00:14:01.281Z,9.70
2022-12-07T00:16:29.791Z,7.95
2022-12-07T00:18:57.212Z,7.43
2022-12-07T00:21:25.742Z,9.90
2022-12-07T00:23:53.608Z,9.93
2022-12-07T00:26:25.122Z,9.70
2022-12-07T00:28:53.382Z,6.90
2022-12-07T00:31:21.797Z,7.40
2022-12-07T00:33:49.115Z,8.20
2022-12-07T00:36:26.057Z,7.55
2022-12-07T00:38:54.263Z,7.93
2022-12-07T00:41:22.981Z,9.30
2022-12-07T00:43:51.083Z,7.72
2022-12-07T00:46:18.699Z,8.60
2022-12-07T00:48:45.916Z,7.72
2022-12-07T00:51:13.527Z,6.78
2022-12-07T00:53:41.808Z,7.65
2022-12-07T00:56:10.290Z,6.20
2022-12-07T00:58:37.471Z,7.22
2022-12-07T01:01:05.330Z,6.93
2022-12-07T01:03:32.620Z,8.00
2022-12-07T01:06:00.375Z,6.30
2022-12-07T01:08:28.325Z,7.18
2022-12-07T01:11:06.177Z,7.75
2022-12-07T01:13:33.877Z,8.48
2022-12-07T01:16:01.811Z,6.72
2022-12-07T01:18:29.598Z,6.10
2022-12-07T01:21:00.960Z,7.10
2022-12-07T01:23:28.373Z,6.60
2022-12-07T01:26:03.342Z,7.25
2022-12-07T01:31:52.948Z,8.10
2022-12-07T01:34:20.077Z,6.40
2022-12-07T01:36:47.224Z,6.82
2022-12-07T01:39:14.424Z,7.80
2022-12-07T01:41:44.280Z,6.63
2022-12-07T01:44:11.479Z,7.03
2022-12-07T01:46:38.762Z,6.30
2022-12-07T01:49:07.862Z,7.75
2022-12-07T01:51:35.420Z,7.40
2022-12-07T01:54:02.716Z,6.75
2022-12-07T01:56:30.953Z,8.30
2022-12-07T01:58:58.445Z,7.43
2022-12-07T02:01:25.672Z,6.63
2022-12-07T02:03:53.033Z,5.80
2022-12-07T02:06:22.500Z,6.93
2022-12-07T02:08:49.811Z,6.18
2022-12-07T02:11:17.605Z,5.47
2022-12-07T02:13:46.517Z,6.32
2022-12-07T02:16:16.675Z,6.00
2022-12-07T02:18:43.782Z,5.68
2022-12-07T02:21:23.316Z,6.07
2022-12-07T02:23:53.560Z,6.65
2022-12-07T02:26:38.748Z,6.03
2022-12-07T02:29:14.047Z,7.63
2022-12-07T02:31:45.506Z,6.82
2022-12-07T02:34:27.325Z,7.85
2022-12-07T02:36:57.588Z,6.22
2022-12-07T02:39:30.314Z,7.95
2022-12-07T02:41:59.514Z,6.10
2022-12-07T02:44:28.947Z,6.70
2022-12-07T02:46:58.814Z,6.28
2022-12-07T02:49:26.431Z,5.97
2022-12-07T02:51:54.170Z,6.00
2022-12-07T02:54:21.830Z,5.63
2022-12-07T02:56:50.553Z,7.10
2022-12-07T02:59:37.928Z,7.20
2022-12-07T03:02:28.417Z,5.55
2022-12-07T03:04:58.650Z,9.02
2022-12-07T03:07:28.562Z,7.63
2022-12-07T03:10:04.818Z,5.05
2022-12-07T03:12:50.755Z,5.47
2022-12-07T03:15:27.724Z,7.20
2022-12-07T03:17:56.707Z,5.95
2022-12-07T03:20:24.850Z,5.75
2022-12-07T03:22:52.671Z,5.35
2022-12-07T03:25:19.885Z,5.55
2022-12-07T03:27:53.064Z,6.53
2022-12-07T03:30:21.827Z,5.20
2022-12-07T03:32:54.893Z,6.35
2022-12-07T03:35:28.928Z,6.45
2022-12-07T03:37:57.858Z,5.40
2022-12-07T03:40:32.278Z,5.57
2022-12-07T03:43:03.599Z,6.57
2022-12-07T03:45:38.458Z,5.13
2022-12-07T03:48:05.607Z,5.13
2022-12-07T03:50:35.465Z,5.32
2022-12-07T03:53:24.289Z,5.50
2022-12-07T03:55:52.315Z,5.72
2022-12-07T03:58:20.957Z,5.45
2022-12-07T04:00:48.653Z,5.30
2022-12-07T04:03:15.887Z,12.52
2022-12-07T04:05:44.177Z,5.75
2022-12-07T04:08:11.378Z,5.43
2022-12-07T04:10:38.729Z,5.20
2022-12-07T04:13:05.866Z,7.43
2022-12-07T04:15:33.039Z,4.97
2022-12-07T04:18:00.216Z,5.07
2022-12-07T04:20:27.361Z,5.60
2022-12-07T04:22:54.550Z,5.15
2022-12-07T04:25:21.783Z,6.10
2022-12-07T04:27:48.900Z,4.15
2022-12-07T04:30:16.361Z,5.55
2022-12-07T04:32:43.539Z,6.53
2022-12-07T04:35:10.797Z,4.88
2022-12-07T04:37:40.152Z,4.43
2022-12-07T04:40:08.882Z,5.43
2022-12-07T04:42:36.035Z,5.78
2022-12-07T04:45:03.241Z,5.55
2022-12-07T04:47:30.419Z,4.38
2022-12-07T04:49:57.563Z,3.95
2022-12-07T04:52:24.686Z,5.60
2022-12-07T04:54:51.868Z,4.57
2022-12-07T04:57:18.970Z,4.30
2022-12-07T04:59:46.281Z,4.80
2022-12-07T05:02:13.972Z,4.28
2022-12-07T05:04:41.215Z,5.10
2022-12-07T05:07:08.387Z,4.78
2022-12-07T05:09:35.650Z,4.57
2022-12-07T05:12:02.866Z,4.93
2022-12-07T05:14:30.036Z,4.45
2022-12-07T05:16:57.178Z,4.57
2022-12-07T05:19:24.358Z,4.60
2022-12-07T05:21:51.512Z,5.22
2022-12-07T05:24:19.191Z,4.82
2022-12-07T05:26:46.542Z,4.35
2022-12-07T05:29:14.983Z,6.35
2022-12-07T05:31:42.298Z,4.80
2022-12-07T05:34:09.666Z,4.60
2022-12-07T05:36:36.882Z,3.67
2022-12-07T05:39:04.284Z,4.35
2022-12-07T05:41:50.052Z,5.22
2022-12-07T05:44:17.228Z,4.05
2022-12-07T05:46:44.517Z,4.38
2022-12-07T05:49:11.721Z,7.15
2022-12-07T05:51:38.904Z,3.95
2022-12-07T05:54:06.145Z,5.57
2022-12-07T05:56:33.379Z,6.07
2022-12-07T05:59:19.079Z,7.05
2022-12-07T06:01:46.417Z,4.03
2022-12-07T06:04:13.696Z,4.45
2022-12-07T06:06:40.910Z,6.38
2022-12-07T06:09:08.151Z,11.80
2022-12-07T06:11:53.962Z,6.40
2022-12-07T06:14:21.398Z,7.28
2022-12-07T06:16:48.645Z,6.10
2022-12-07T06:19:15.805Z,6.68
2022-12-07T06:21:42.996Z,5.75
2022-12-07T06:24:11.828Z,8.98
2022-12-07T06:26:39.034Z,6.63
2022-12-07T06:29:06.493Z,4.00
2022-12-07T06:31:33.901Z,6.72
2022-12-07T06:34:01.614Z,5.85
2022-12-07T06:36:28.788Z,7.68
2022-12-07T06:38:56.324Z,5.60
2022-12-07T06:41:23.809Z,5.03
2022-12-07T06:43:55.739Z,10.00
2022-12-07T06:46:23.821Z,4.00
2022-12-07T06:48:51.091Z,5.55
2022-12-07T06:51:18.550Z,5.60
2022-12-07T06:53:45.731Z,5.50
2022-12-07T06:56:12.862Z,3.83
2022-12-07T06:58:40.781Z,4.75
2022-12-07T07:01:12.057Z,7.07
2022-12-07T07:03:39.326Z,5.20
2022-12-07T07:06:07.260Z,4.20
2022-12-07T07:08:35.141Z,5.15
2022-12-07T07:11:02.593Z,10.93
2022-12-07T07:13:30.056Z,4.57
2022-12-07T07:15:57.235Z,5.40
2022-12-07T07:18:24.561Z,8.38
2022-12-07T07:20:52.237Z,5.15
2022-12-07T07:23:19.952Z,4.75
2022-12-07T07:25:50.230Z,4.22
2022-12-07T07:28:18.262Z,5.35
2022-12-07T07:30:45.824Z,5.07
2022-12-07T07:33:13.797Z,4.82
2022-12-07T07:35:41.078Z,5.82
2022-12-07T07:38:08.711Z,6.25
2022-12-07T07:40:36.508Z,8.82
2022-12-07T07:43:03.679Z,7.07
2022-12-07T07:45:30.911Z,5.60
2022-12-07T07:47:58.079Z,6.88
2022-12-07T07:50:25.267Z,5.70
2022-12-07T07:52:53.056Z,6.80
2022-12-07T07:55:20.373Z,6.43
2022-12-07T07:57:54.174Z,9.27
2022-12-07T08:00:22.128Z,6.18
2022-12-07T08:02:49.321Z,5.68
2022-12-07T08:05:16.582Z,7.25
2022-12-07T08:07:44.483Z,6.32
2022-12-07T08:10:12.798Z,10.35
2022-12-07T08:13:00.609Z,5.05
2022-12-07T08:15:28.918Z,6.97
2022-12-07T08:17:56.105Z,5.70
2022-12-07T08:20:23.549Z,6.90
2022-12-07T08:22:50.703Z,6.13
2022-12-07T08:25:17.932Z,9.95
2022-12-07T08:27:45.079Z,9.00
2022-12-07T08:30:12.370Z,6.53
2022-12-07T08:32:39.540Z,7.80
2022-12-07T08:35:06.910Z,5.97
2022-12-07T08:37:34.164Z,6.47
2022-12-07T08:40:01.788Z,7.53
2022-12-07T08:42:30.905Z,7.78
2022-12-07T08:44:58.505Z,7.65
2022-12-07T08:47:26.394Z,7.65
2022-12-07T08:49:54.111Z,8.27
2022-12-07T08:52:21.222Z,9.00
2022-12-07T08:54:48.735Z,8.82
2022-12-07T08:57:15.917Z,5.95
2022-12-07T08:59:43.090Z,6.68
2022-12-07T09:02:10.428Z,9.93
2022-12-07T09:04:37.683Z,12.32
2022-12-07T09:07:05.235Z,6.28
2022-12-07T09:09:32.557Z,9.20
2022-12-07T09:11:59.715Z,9.88
2022-12-07T09:14:26.878Z,9.20
2022-12-07T09:16:54.096Z,6.13
2022-12-07T09:19:21.289Z,13.40
2022-12-07T09:21:48.397Z,7.82
2022-12-07T09:24:15.630Z,11.63
2022-12-07T09:26:42.817Z,7.25
2022-12-07T09:29:09.947Z,6.82
2022-12-07T09:31:37.919Z,7.47
2022-12-07T09:34:06.723Z,9.10
2022-12-07T09:36:34.033Z,7.20
2022-12-07T09:39:01.211Z,6.72
2022-12-07T09:41:29.072Z,7.95
2022-12-07T09:43:59.945Z,8.32
2022-12-07T09:46:27.397Z,7.05
2022-12-07T09:48:54.686Z,8.45
2022-12-07T09:51:24.643Z,9.30
2022-12-07T09:53:53.720Z,8.05
2022-12-07T09:56:21.427Z,7.03
2022-12-07T09:58:49.068Z,7.65
2022-12-07T10:01:20.614Z,12.23
2022-12-07T10:03:52.353Z,11.18
2022-12-07T10:06:19.583Z,11.85
2022-12-07T10:08:46.804Z,7.78
2022-12-07T10:11:15.828Z,8.60
2022-12-07T10:13:48.716Z,10.13
2022-12-07T10:16:33.538Z,7.45
2022-12-07T10:19:18.560Z,9.82
2022-12-07T10:22:01.009Z,7.35
2022-12-07T10:24:29.717Z,10.35
2022-12-07T10:26:57.200Z,7.85
2022-12-07T10:29:25.842Z,8.18
2022-12-07T10:31:56.837Z,9.38
2022-12-07T10:34:26.422Z,7.35
2022-12-07T10:36:54.836Z,8.18
2022-12-07T10:39:23.145Z,7.63
2022-12-07T10:42:04.207Z,10.90
2022-12-07T10:44:32.527Z,7.80
2022-12-07T10:47:04.280Z,8.75
2022-12-07T10:49:50.424Z,9.32
2022-12-07T10:52:27.358Z,8.20
2022-12-07T10:54:54.466Z,13.18
2022-12-07T10:57:28.024Z,9.13
2022-12-07T11:00:02.076Z,10.23
2022-12-07T11:02:29.324Z,8.38
2022-12-07T11:05:05.684Z,8.57
2022-12-07T11:07:38.856Z,8.55
2022-12-07T11:10:09.062Z,10.05
2022-12-07T11:12:47.304Z,11.73
2022-12-07T11:15:23.556Z,9.95
2022-12-07T11:17:57.389Z,10.50
2022-12-07T11:20:37.659Z,9.23
2022-12-07T11:23:11.039Z,11.27
2022-12-07T11:25:44.319Z,12.07
2022-12-07T11:28:14.490Z,12.95
2022-12-07T11:30:49.598Z,10.52
2022-12-07T11:33:21.014Z,13.05
2022-12-07T11:35:48.175Z,13.10
2022-12-07T11:38:22.183Z,13.10
2022-12-07T11:40:56.529Z,15.48
2022-12-07T11:43:23.684Z,15.50
2022-12-07T11:46:11.138Z,16.98
2022-12-07T11:48:53.560Z,16.33
2022-12-07T11:51:22.176Z,23.60
2022-12-07T11:54:05.345Z,15.50
2022-12-07T11:56:35.335Z,14.82
2022-12-07T11:59:05.352Z,17.65
2022-12-07T12:01:34.282Z,14.90
2022-12-07T12:04:04.971Z,15.93
2022-12-07T12:06:32.543Z,16.58
2022-12-07T12:15:05.150Z,20.38
2022-12-07T12:17:41.572Z,23.00
2022-12-07T12:20:18.940Z,25.90
2022-12-07T12:22:48.091Z,21.02
2022-12-07T12:25:26.876Z,24.83
2022-12-07T12:27:54.909Z,28.58
2022-12-07T12:30:26.956Z,24.33
2022-12-07T12:32:54.213Z,25.90
2022-12-07T12:35:24.200Z,30.40
2022-12-07T12:37:53.667Z,29.77
2022-12-07T12:40:23.933Z,28.08
2022-12-07T12:42:55.222Z,34.03
2022-12-07T12:45:22.461Z,32.70
2022-12-07T12:48:02.117Z,29.55
2022-12-07T12:50:31.110Z,30.10
2022-12-07T12:53:17.025Z,31.67
2022-12-07T12:55:44.147Z,30.73
2022-12-07T12:58:20.417Z,30.35
2022-12-07T13:00:47.974Z,31.35
2022-12-07T13:03:28.053Z,30.90
2022-12-07T13:06:13.804Z,34.25
2022-12-07T13:08:43.037Z,34.10
2022-12-07T13:11:22.371Z,35.25
2022-12-07T13:13:49.659Z,31.63
2022-12-07T13:16:16.892Z,30.05
2022-12-07T13:18:44.410Z,29.77
2022-12-07T13:21:11.555Z,30.25
2022-12-07T13:23:39.781Z,29.63
2022-12-07T13:26:21.962Z,28.10
2022-12-07T13:28:50.779Z,28.58
2022-12-07T13:31:33.118Z,28.98
2022-12-07T13:34:00.723Z,26.92
2022-12-07T13:36:29.341Z,24.65
2022-12-07T13:39:00.532Z,23.65
2022-12-07T13:41:28.872Z,23.55
2022-12-07T13:44:11.176Z,23.33
2022-12-07T13:46:44.182Z,26.75
2022-12-07T13:49:40.793Z,25.08
2022-12-07T13:52:17.278Z,22.33
2022-12-07T13:54:48.493Z,23.02
2022-12-07T13:57:15.717Z,23.95
2022-12-07T13:59:43.002Z,25.55
2022-12-07T14:02:22.297Z,21.73
2022-12-07T14:04:50.972Z,21.88
2022-12-07T14:07:22.071Z,21.25
2022-12-07T14:09:59.300Z,25.75
2022-12-07T14:12:27.211Z,19.75
2022-12-07T14:14:55.566Z,23.67
2022-12-07T14:17:24.160Z,21.73
2022-12-07T14:19:51.487Z,24.33
2022-12-07T14:22:38.315Z,22.42
2022-12-07T14:25:11.426Z,18.88
2022-12-07T14:27:38.710Z,21.35
2022-12-07T14:30:06.739Z,20.38
2022-12-07T14:32:34.387Z,20.20
2022-12-07T14:35:03.314Z,20.48
2022-12-07T14:37:31.299Z,17.70
2022-12-07T14:39:58.660Z,21.20
2022-12-07T14:42:28.008Z,19.67
2022-12-07T14:44:55.166Z,17.52
2022-12-07T14:50:10.384Z,14.75
2022-12-07T14:55:32.140Z,16.38
2022-12-07T14:57:59.847Z,17.70
2022-12-07T15:00:27.979Z,19.77
2022-12-07T15:02:55.467Z,19.30
2022-12-07T15:05:22.838Z,18.30
2022-12-07T15:07:50.721Z,24.23
2022-12-07T15:10:23.973Z,21.02
2022-12-07T15:12:51.952Z,19.60
2022-12-07T15:15:19.205Z,19.15
2022-12-07T15:17:46.536Z,18.80
2022-12-07T15:20:15.063Z,18.13
2022-12-07T15:22:42.265Z,19.58
2022-12-07T15:25:10.716Z,17.83
2022-12-07T15:27:37.896Z,18.05
2022-12-07T15:30:05.619Z,19.42
2022-12-07T15:32:32.852Z,20.58
2022-12-07T15:35:00.333Z,27.63
2022-12-07T15:37:27.634Z,28.02
2022-12-07T15:39:54.830Z,25.67
2022-12-07T15:42:21.947Z,24.00
2022-12-07T15:45:07.958Z,23.92
2022-12-07T15:48:02.284Z,21.85
2022-12-07T15:50:24.757Z,21.48
2022-12-07T15:52:51.960Z,20.45
2022-12-07T15:55:19.205Z,20.48
2022-12-07T15:57:46.403Z,19.73
2022-12-07T16:00:13.861Z,21.02
2022-12-07T16:02:41.081Z,20.58
2022-12-07T16:05:08.493Z,20.05
2022-12-07T16:07:35.690Z,19.85
2022-12-07T16:10:04.400Z,18.27
2022-12-07T16:12:31.717Z,19.95
2022-12-07T16:14:59.143Z,18.98
2022-12-07T16:17:26.273Z,19.35
2022-12-07T16:19:54.458Z,18.10
2022-12-07T16:22:21.638Z,19.48
2022-12-07T16:24:48.755Z,18.25
2022-12-07T16:27:16.061Z,17.92
2022-12-07T16:29:43.309Z,17.10
2022-12-07T16:32:11.497Z,16.95
2022-12-07T16:34:38.681Z,16.58
2022-12-07T16:37:06.270Z,16.95
2022-12-07T16:39:34.042Z,16.10
2022-12-07T16:42:01.261Z,17.98
2022-12-07T16:44:29.162Z,15.40
2022-12-07T16:46:56.422Z,17.20
2022-12-07T16:49:24.973Z,15.30
2022-12-07T16:52:14.988Z,15.13
2022-12-07T16:54:39.497Z,15.60
2022-12-07T16:57:06.729Z,15.10
2022-12-07T16:59:33.956Z,14.60
2022-12-07T17:02:01.065Z,16.20
2022-12-07T17:04:28.357Z,15.77
2022-12-07T17:06:55.789Z,15.55
2022-12-07T17:09:22.969Z,15.73
2022-12-07T17:11:50.219Z,15.65
2022-12-07T17:14:36.015Z,15.48
2022-12-07T17:17:04.283Z,15.07
2022-12-07T17:19:31.495Z,13.98
2022-12-07T17:21:58.626Z,14.82
2022-12-07T17:24:27.346Z,14.27
2022-12-07T17:26:54.537Z,13.18
2022-12-07T17:29:22.628Z,13.10
2022-12-07T17:31:51.879Z,13.43
2022-12-07T17:34:19.546Z,14.30
2022-12-07T17:36:47.796Z,13.38
2022-12-07T17:39:16.990Z,13.32
2022-12-07T17:42:03.121Z,18.77
2022-12-07T17:44:30.726Z,14.10
2022-12-07T17:46:59.249Z,13.02
2022-12-07T17:49:27.277Z,12.90
2022-12-07T17:52:13.188Z,14.45
2022-12-07T17:54:40.554Z,13.18
2022-12-07T17:57:07.931Z,13.38
2022-12-07T17:59:35.239Z,12.90
2022-12-07T18:02:02.509Z,13.93
2022-12-07T18:04:29.677Z,12.93
2022-12-07T18:06:56.893Z,11.88
2022-12-07T18:09:24.119Z,14.05
2022-12-07T18:11:51.826Z,13.40
2022-12-07T18:14:19.071Z,13.18
2022-12-07T18:16:46.366Z,13.05
2022-12-07T18:19:14.758Z,11.43
2022-12-07T18:21:42.775Z,12.18
2022-12-07T18:24:13.521Z,17.60
2022-12-07T18:26:41.188Z,13.77
2022-12-07T18:29:09.393Z,12.57
2022-12-07T18:31:37.313Z,13.93
2022-12-07T18:34:08.600Z,14.32
2022-12-07T18:36:35.873Z,15.40
2022-12-07T18:39:05.083Z,19.48
2022-12-07T18:41:32.251Z,13.52
2022-12-07T18:43:59.437Z,14.50
2022-12-07T18:46:26.732Z,14.48
2022-12-07T18:48:57.027Z,20.10
2022-12-07T18:51:28.785Z,15.63
2022-12-07T18:54:00.991Z,17.88
2022-12-07T18:56:28.478Z,15.68
2022-12-07T18:59:15.747Z,19.23
2022-12-07T19:01:44.372Z,20.40
2022-12-07T19:04:11.634Z,17.10
2022-12-07T19:06:40.708Z,20.10
2022-12-07T19:09:08.081Z,15.85
2022-12-07T19:11:50.809Z,13.52
2022-12-07T19:14:26.321Z,16.27
2022-12-07T19:16:55.336Z,16.17
2022-12-07T19:19:24.202Z,16.80
2022-12-07T19:21:51.535Z,14.55
2022-12-07T19:24:23.081Z,16.20
2022-12-07T19:26:50.912Z,15.63
2022-12-07T19:29:18.091Z,18.38
2022-12-07T19:31:45.471Z,17.23
2022-12-07T19:34:13.661Z,20.15
2022-12-07T19:36:40.958Z,19.88
2022-12-07T19:39:12.879Z,18.52
2022-12-07T19:41:43.711Z,23.98
2022-12-07T19:44:18.513Z,20.45
2022-12-07T19:46:46.799Z,19.60
2022-12-07T19:49:16.244Z,17.38
2022-12-07T19:51:44.708Z,20.17
2022-12-07T19:54:14.586Z,17.80
2022-12-07T19:56:42.341Z,18.10
2022-12-07T19:59:09.613Z,22.38
2022-12-07T20:01:42.992Z,20.08
2022-12-07T20:04:12.092Z,18.42
2022-12-07T20:06:39.525Z,22.52
2022-12-07T20:09:06.701Z,17.77
2022-12-07T20:11:52.454Z,22.38
2022-12-07T20:14:19.551Z,22.42
2022-12-07T20:16:46.916Z,21.63
2022-12-07T20:19:14.917Z,19.63
2022-12-07T20:21:43.019Z,21.70
2022-12-07T20:24:12.982Z,26.08
2022-12-07T20:26:40.868Z,24.65
2022-12-07T20:29:12.037Z,21.45
2022-12-07T20:31:42.709Z,20.83
2022-12-07T20:34:10.362Z,20.58
2022-12-07T20:36:37.729Z,21.77
2022-12-07T20:39:05.697Z,21.55
2022-12-07T20:41:52.027Z,22.83
2022-12-07T20:46:46.765Z,17.73
2022-12-07T20:49:15.283Z,25.83
2022-12-07T20:51:42.580Z,38.38
2022-12-07T20:54:09.809Z,21.05
2022-12-07T20:56:37.234Z,23.23
2022-12-07T20:59:06.027Z,25.58
2022-12-07T21:01:33.376Z,24.80
2022-12-07T21:04:01.787Z,24.45
2022-12-07T21:06:29.680Z,21.35
2022-12-07T21:08:58.105Z,19.38
2022-12-07T21:11:25.965Z,17.77
2022-12-07T21:13:53.101Z,17.77
2022-12-07T21:16:21.754Z,21.38
2022-12-07T21:18:49.127Z,17.45
2022-12-07T21:21:19.224Z,22.02
2022-12-07T21:23:47.387Z,17.15
2022-12-07T21:26:16.105Z,17.40
2022-12-07T21:28:43.266Z,21.23
2022-12-07T21:31:14.211Z,20.30
2022-12-07T21:33:43.961Z,18.42
2022-12-07T21:36:12.492Z,16.55
2022-12-07T21:38:39.655Z,15.85
2022-12-07T21:41:20.281Z,23.55
2022-12-07T21:43:47.792Z,25.02
2022-12-07T21:46:15.184Z,19.58
2022-12-07T21:48:42.419Z,22.77
2022-12-07T21:51:10.753Z,17.20
2022-12-07T21:53:39.073Z,15.05
2022-12-07T21:56:10.511Z,33.97
2022-12-07T21:58:37.668Z,18.25
2022-12-07T22:01:04.829Z,20.63
2022-12-07T22:03:32.016Z,15.90
2022-12-07T22:06:02.417Z,19.52
2022-12-07T22:08:29.591Z,21.65
2022-12-07T22:11:01.595Z,18.48
2022-12-07T22:13:49.076Z,12.82
2022-12-07T22:16:16.366Z,16.08
2022-12-07T22:18:43.551Z,16.75
2022-12-07T22:21:10.844Z,17.65
2022-12-07T22:23:38.002Z,17.25
2022-12-07T22:26:06.144Z,16.10
2022-12-07T22:28:33.331Z,15.73
2022-12-07T22:31:10.075Z,19.75
2022-12-07T22:33:37.601Z,19.30
2022-12-07T22:36:05.406Z,12.52
2022-12-07T22:38:33.285Z,11.50
2022-12-07T22:41:00.693Z,16.77
2022-12-07T22:43:27.851Z,15.93
2022-12-07T22:45:58.662Z,15.55
2022-12-07T22:48:26.312Z,12.23
2022-12-07T22:50:54.055Z,14.43
2022-12-07T22:53:22.310Z,15.55
2022-12-07T22:55:49.562Z,13.88
2022-12-07T22:58:17.222Z,12.35
2022-12-07T23:00:44.398Z,14.32
2022-12-07T23:03:11.760Z,15.23
2022-12-07T23:05:46.010Z,11.88
2022-12-07T23:08:13.265Z,14.00
2022-12-07T23:10:44.716Z,13.82
2022-12-07T23:13:35.037Z,12.32
2022-12-07T23:16:08.609Z,15.75
2022-12-07T23:18:35.905Z,17.13
2022-12-07T23:21:03.054Z,17.08
2022-12-07T23:23:30.172Z,15.90
2022-12-07T23:26:02.579Z,18.80
2022-12-07T23:28:29.755Z,18.92
2022-12-07T23:31:02.326Z,13.63
2022-12-07T23:33:29.535Z,16.83
2022-12-07T23:35:56.814Z,20.95
2022-12-07T23:38:23.963Z,21.00
2022-12-07T23:40:51.113Z,15.15
2022-12-07T23:43:18.371Z,15.98
2022-12-07T23:45:47.057Z,16.33
2022-12-07T23:48:14.211Z,11.90
2022-12-07T23:50:41.390Z,13.95
2022-12-07T23:53:08.801Z,13.23
2022-12-07T23:55:35.982Z,11.52
2022-12-07T23:58:03.146Z,13.85
